CL86 weather

Mc Candless Towers Heliport
Santa Clara, California, United States

Public forecast

Using degrees Fahrenheit for public forecast. Weather courtesy of forecast.io.

METAR (pilot weather report)

Closest report is Norman Y. Mineta San Jose International Airport, 2.5 nm (4.6 km) SE. Retrieved 2019/06/19 10:53 UTC (17 minutes ago):

KSJC 191053Z AUTO 15008KT 10SM CLR 14/13 A2992 RMK AO2 SLP130 T01440133 $

TAF (pilot weather forecast)

Closest forecast is Norman Y. Mineta San Jose International Airport, 2.5 nm (4.6 km) SE. Retrieved 2019/06/19 06:27 UTC (5 hours ago):

TAF KSJC 190524Z 1906/2006 32005KT P6SM SKC FM190900 14008KT P6SM SCT010 FM191600 VRB05KT P6SM FEW015 FM192000 29008KT P6SM SKC